Time;durP1;ratioP1;P1;durP2;ratioP2;P2;SDS_P1;SDS_P2;PMS_P1;PMS_P2;Temp;Humidity;BMP_temperature;BMP_pressure;BME280_temperature;BME280_humidity;BME280_pressure;Samples;Min_cycle;Max_cycle;Signal;HPM_P1;HPM_P2
2023/07/14 00:00:28;;;;;;;8.95;5.43;;;;;;;25.89;100.00;99640.06;5025773;28;20592;-77
2023/07/14 00:02:55;;;;;;;10.27;6.25;;;;;;;25.82;100.00;99633.97;5026421;28;20030;-77
2023/07/14 00:05:26;;;;;;;7.55;5.40;;;;;;;25.68;100.00;99634.25;5029921;28;20074;-77
2023/07/14 00:07:54;;;;;;;9.07;6.50;;;;;;;25.64;100.00;99638.50;5027741;28;20040;-76
2023/07/14 00:10:31;;;;;;;9.18;5.78;;;;;;;25.62;100.00;99637.91;5026432;28;20124;-77
2023/07/14 00:13:05;;;;;;;7.40;6.35;;;;;;;25.64;100.00;99633.09;5025664;28;20033;-75
2023/07/14 00:15:34;;;;;;;7.88;5.78;;;;;;;25.66;100.00;99630.97;5022351;28;20781;-76
2023/07/14 00:18:08;;;;;;;;;;;;;;;25.61;100.00;99638.97;5025852;28;20032;-76
2023/07/14 00:20:34;;;;;;;;;;;;;;;25.52;100.00;99634.97;5025370;28;19917;-76
2023/07/14 00:22:59;;;;;;;;;;;;;;;25.54;100.00;99638.25;5028163;28;19913;-77
2023/07/14 00:25:25;;;;;;;;;;;;;;;25.56;100.00;99636.19;5027493;28;19956;-77
2023/07/14 00:27:54;;;;;;;;;;;;;;;25.56;100.00;99636.19;5029571;28;19959;-77
2023/07/14 00:30:21;;;;;;;;;;;;;;;25.57;100.00;99643.19;5006862;28;19925;-78
2023/07/14 00:32:48;;;;;;;;;;;;;;;25.58;100.00;99639.44;5024213;28;19917;-78
2023/07/14 00:35:16;;;;;;;;;;;;;;;25.56;100.00;99640.72;5027101;28;19923;-77
2023/07/14 00:37:41;;;;;;;;;;;;;;;25.57;100.00;99637.78;5027671;28;19917;-77
2023/07/14 00:40:08;;;;;;;;;;;;;;;25.60;100.00;99631.94;5024074;28;19921;-76
2023/07/14 00:42:34;;;;;;;;;;;;;;;25.64;100.00;99624.97;5027138;28;20038;-76
2023/07/14 00:44:59;;;;;;;;;;;;;;;25.64;100.00;99619.56;5021635;28;20015;-76
2023/07/14 00:47:26;;;;;;;;;;;;;;;25.64;100.00;99626.84;5029375;28;19921;-76
2023/07/14 00:49:52;;;;;;;;;;;;;;;25.67;100.00;99621.00;5024167;28;19929;-76
2023/07/14 00:52:22;;;;;;;;;;;;;;;25.72;100.00;99636.47;5026199;28;19921;-77
2023/07/14 00:54:49;;;;;;;;;;;;;;;25.75;100.00;99644.94;5024832;28;19917;-75
2023/07/14 00:57:18;;;;;;;;;;;;;;;25.77;100.00;99636.59;5024096;28;19921;-76
2023/07/14 00:59:44;;;;;;;;;;;;;;;25.78;100.00;99633.66;5023628;28;19928;-77
2023/07/14 01:02:15;;;;;;;;;;;;;;;25.79;100.00;99637.19;5018245;28;19927;-77
2023/07/14 01:04:43;;;;;;;;;;;;;;;25.78;100.00;99643.63;5024772;28;20318;-76
2023/07/14 01:07:10;;;;;;;;;;;;;;;25.78;100.00;99659.84;5033180;28;19974;-76
2023/07/14 01:09:36;;;;;;;;;;;;;;;25.78;100.00;99659.84;5024256;28;20439;-77
2023/07/14 01:12:03;;;;;;;;;;;;;;;25.75;100.00;99661.13;5026323;28;19972;-76
2023/07/14 01:14:31;;;;;;;;;;;;;;;25.72;100.00;99671.63;5026672;28;20428;-75
2023/07/14 01:16:57;;;;;;;;;;;;;;;25.42;100.00;99677.97;5024173;28;20014;-76
2023/07/14 01:19:40;;;;;;;;;;;;;;;25.30;100.00;99682.56;5026660;28;19967;-76
2023/07/14 01:22:05;;;;;;;;;;;;;;;25.38;100.00;99671.41;5026017;28;20296;-75
2023/07/14 01:24:35;;;;;;;;;;;;;;;25.42;100.00;99669.88;5030364;28;19917;-76
2023/07/14 01:27:07;;;;;;;;;;;;;;;25.38;100.00;99674.09;5031028;28;19929;-75
2023/07/14 01:29:33;;;;;;;;;;;;;;;25.19;100.00;99688.78;5031395;28;19949;-77
2023/07/14 01:31:58;;;;;;;;;;;;;;;25.15;100.00;99682.22;5025693;28;20021;-76
2023/07/14 01:34:24;;;;;;;;;;;;;;;25.08;100.00;99676.09;5031280;28;19917;-76
2023/07/14 01:36:49;;;;;;;;;;;;;;;25.10;100.00;99679.38;5039010;28;19975;-76
2023/07/14 01:39:15;;;;;;;;;;;;;;;24.98;100.00;99670.44;5030031;28;19920;-78
2023/07/14 01:41:41;;;;;;;;;;;;;;;24.95;100.00;99665.50;5028318;28;20266;-77
2023/07/14 01:44:11;;;;;;;;;;;;;;;24.73;100.00;99666.06;5030266;28;19956;-78
2023/07/14 01:46:36;;;;;;;;;;;;;;;24.69;100.00;99672.94;5029574;28;19979;-78
2023/07/14 01:49:09;;;;;;;;;;;;;;;24.70;100.00;99674.59;5031260;28;19917;-78
2023/07/14 01:51:38;;;;;;;;;;;;;;;24.62;100.00;99674.94;5026576;28;20273;-77
2023/07/14 01:54:21;;;;;;;;;;;;;;;24.61;100.00;99670.59;5028231;28;19984;-79
2023/07/14 01:56:47;;;;;;;;;;;;;;;24.57;100.00;99666.69;5030340;28;19921;-78
2023/07/14 01:59:24;;;;;;;;;;;;;;;24.60;100.00;99674.34;5040616;28;20336;-78
2023/07/14 02:01:52;;;;;;;7.85;6.50;;;;;;;24.67;100.00;99675.06;5029963;28;20117;-77
2023/07/14 02:04:22;;;;;;;6.72;5.75;;;;;;;24.74;100.00;99670.38;5024383;28;20029;-78
2023/07/14 02:06:48;;;;;;;;;;;;;;;24.77;100.00;99669.91;5036265;28;20037;-77
2023/07/14 02:09:16;;;;;;;;;;;;;;;24.83;100.00;99668.16;5039920;28;19917;-77
2023/07/14 02:11:43;;;;;;;;;;;;;;;24.88;100.00;99671.00;5028842;28;19921;-78
2023/07/14 02:14:14;;;;;;;;;;;;;;;24.93;100.00;99673.00;5028199;28;20374;-77
2023/07/14 02:16:40;;;;;;;;;;;;;;;24.97;100.00;99669.63;5029120;28;19949;-77
2023/07/14 02:19:10;;;;;;;;;;;;;;;24.99;100.00;99661.28;5023311;28;20420;-77
2023/07/14 02:21:37;;;;;;;;;;;;;;;25.01;100.00;99660.00;5043008;28;19975;-77
2023/07/14 02:24:04;;;;;;;;;;;;;;;25.01;100.00;99664.59;5026459;28;19924;-77
2023/07/14 02:26:33;;;;;;;;;;;;;;;24.99;100.00;99667.50;5023655;28;19925;-76
2023/07/14 02:28:58;;;;;;;;;;;;;;;25.00;100.00;99663.75;5030164;28;19936;-76
2023/07/14 02:31:24;;;;;;;;;;;;;;;25.00;100.00;99660.22;5027597;28;20623;-76
2023/07/14 02:33:50;;;;;;;;;;;;;;;25.02;100.00;99660.84;5027907;28;20015;-77
2023/07/14 02:36:21;;;;;;;;;;;;;;;25.03;100.00;99670.59;5030274;28;20011;-77
2023/07/14 02:38:47;;;;;;;;;;;;;;;25.01;100.00;99669.97;5030226;28;19921;-77
2023/07/14 02:41:12;;;;;;;;;;;;;;;25.02;100.00;99671.63;5030718;28;19955;-77
2023/07/14 02:43:38;;;;;;;;;;;;;;;24.99;100.00;99675.59;5023611;28;19921;-77
2023/07/14 02:46:43;;;;;;;;;;;;;;;25.01;100.00;99676.22;5039499;28;19934;-77
2023/07/14 02:49:08;;;;;;;;;;;;;;;25.03;100.00;99673.28;4952168;29;19930;-77
2023/07/14 02:51:34;;;;;;;;;;;;;;;25.05;100.00;99676.56;4932401;29;19923;-77
2023/07/14 02:53:59;;;;;;;;;;;;;;;25.04;100.00;99674.91;4944827;29;19985;-77
2023/07/14 02:56:24;;;;;;;;;;;;;;;25.01;100.00;99676.22;4948214;29;19970;-76
2023/07/14 02:58:50;;;;;;;;;;;;;;;25.02;100.00;99675.16;4947901;29;19923;-78
2023/07/14 03:01:16;;;;;;;;;;;;;;;25.01;100.00;99678.09;4937906;28;19922;-77
2023/07/14 03:03:44;;;;;;;;;;;;;;;25.05;100.00;99677.38;4951204;28;19922;-78
2023/07/14 03:06:12;;;;;;;;;;;;;;;25.06;100.00;99683.59;4950382;29;19922;-78
2023/07/14 03:08:37;;;;;;;;;;;;;;;25.04;100.00;99685.69;4945341;29;19930;-77
2023/07/14 03:11:03;;;;;;;;;;;;;;;25.05;100.00;99676.56;4927665;29;19923;-75
2023/07/14 03:13:28;;;;;;;;;;;;;;;25.01;100.00;99675.38;4948792;29;19959;-77
2023/07/14 03:15:54;;;;;;;;;;;;;;;24.99;100.00;99672.91;4929273;29;19922;-75
2023/07/14 03:18:21;;;;;;;;;;;;;;;24.98;100.00;99673.97;4948122;29;20001;-75
2023/07/14 03:20:46;;;;;;;;;;;;;;;25.01;100.00;99669.97;5016631;28;20381;-76
2023/07/14 03:23:11;;;;;;;;;;;;;;;24.99;100.00;99672.09;5024505;28;19983;-76
2023/07/14 03:25:36;;;;;;;;;;;;;;;24.91;100.00;99669.75;5030154;28;19960;-76
2023/07/14 03:28:03;;;;;;;;;;;;;;;24.87;100.00;99670.16;5024624;28;19922;-78
2023/07/14 03:30:29;;;;;;;;;;;;;;;24.87;100.00;99663.94;5027708;28;19983;-76
2023/07/14 03:32:54;;;;;;;;;;;;;;;24.85;100.00;99680.38;5027010;28;19973;-76
2023/07/14 03:35:20;;;;;;;;;;;;;;;24.85;100.00;99680.38;5030222;28;19927;-76
2023/07/14 03:37:45;;;;;;;;;;;;;;;24.82;100.00;99683.53;5030176;28;19996;-77
2023/07/14 03:40:11;;;;;;;;;;;;;;;24.77;100.00;99675.31;5027213;28;20016;-75
2023/07/14 03:42:38;;;;;;;;;;;;;;;24.76;100.00;99684.47;5028958;28;19989;-76
2023/07/14 03:45:03;;;;;;;;;;;;;;;24.75;100.00;99682.81;5023168;28;19922;-75
2023/07/14 03:47:29;;;;;;;;;;;;;;;24.73;100.00;99679.53;5029978;28;20008;-76
2023/07/14 03:49:54;;;;;;;;;;;;;;;24.74;100.00;99683.84;5024391;28;19968;-76
2023/07/14 03:52:19;;;;;;;;;;;;;;;24.69;100.00;99689.13;5026827;28;19928;-76
2023/07/14 03:54:45;;;;;;;;;;;;;;;24.71;100.00;99687.03;5025278;28;19994;-76
2023/07/14 03:57:10;;;;;;;;;;;;;;;24.72;100.00;99683.28;5026269;28;20342;-77
2023/07/14 03:59:35;;;;;;;;;;;;;;;24.69;100.00;99689.13;5026038;28;19922;-76
2023/07/14 04:02:01;;;;;;;;;;;;;;;24.69;100.00;99689.13;5027488;28;19924;-77
2023/07/14 04:04:28;;;;;;;;;;;;;;;24.74;100.00;99702.75;5023668;28;19921;-76
2023/07/14 04:06:54;;;;;;;;;;;;;;;24.73;100.00;99695.72;5029193;28;20373;-77
2023/07/14 04:09:20;;;;;;;;;;;;;;;24.69;100.00;99699.94;5042746;28;19957;-78
2023/07/14 04:11:45;;;;;;;;;;;;;;;24.64;100.00;99707.91;5026632;28;20002;-77
2023/07/14 04:14:11;;;;;;;;;;;;;;;24.55;100.00;99706.59;5034766;28;20061;-77
2023/07/14 04:16:36;;;;;;;;;;;;;;;24.44;100.00;99704.69;5028237;28;20293;-77
2023/07/14 04:19:02;;;;;;;;;;;;;;;24.48;100.00;99713.94;5022537;28;19932;-77
2023/07/14 04:21:29;;;;;;;;;;;;;;;24.52;100.00;99714.31;5028935;28;19921;-76
2023/07/14 04:23:55;;;;;;;;;;;;;;;24.54;100.00;99713.03;5023707;28;19963;-77
2023/07/14 04:26:21;;;;;;;;;;;;;;;24.45;100.00;99725.19;5026725;28;19921;-77
2023/07/14 04:28:47;;;;;;;;;;;;;;;24.41;100.00;99718.59;5025889;28;20394;-77
2023/07/14 04:31:12;;;;;;;;;;;;;;;24.44;100.00;99712.78;5026578;28;20339;-77
2023/07/14 04:33:37;;;;;;;;;;;;;;;24.43;100.00;99716.50;5024810;28;20293;-77
2023/07/14 04:36:03;;;;;;;;;;;;;;;24.47;100.00;99723.09;5027851;28;19925;-77
2023/07/14 04:38:29;;;;;;;;;;;;;;;24.34;100.00;99717.88;5022915;28;19999;-77
2023/07/14 04:40:54;;;;;;;;;;;;;;;24.45;100.00;99717.09;5028738;28;19971;-77
2023/07/14 04:43:20;;;;;;;;;;;;;;;24.37;100.00;99720.13;5024704;28;20343;-78
2023/07/14 04:45:46;;;;;;;;;;;;;;;24.15;100.00;99714.34;5026487;28;19921;-77
2023/07/14 04:48:13;;;;;;;10.18;6.75;;;;;;;24.17;100.00;99722.22;5026223;28;19967;-77
2023/07/14 04:50:39;;;;;;;;;;;;;;;24.25;100.00;99721.94;5026973;28;20475;-78
2023/07/14 04:53:05;;;;;;;8.35;6.43;;;;;;;24.26;100.00;99720.91;5023750;28;19921;-76
2023/07/14 04:55:35;;;;;;;7.27;6.27;;;;;;;24.22;100.00;99719.69;5027657;28;20362;-77
2023/07/14 04:58:01;;;;;;;8.90;6.50;;;;;;;24.20;100.00;99727.19;5017588;28;20087;-77
2023/07/14 05:00:26;;;;;;;;;;;;;;;24.30;100.00;99727.47;5029616;28;19921;-75
2023/07/14 05:02:51;;;;;;;;;;;;;;;24.35;100.00;99731.13;5025436;28;19917;-76
2023/07/14 05:05:18;;;;;;;;;;;;;;;24.30;100.00;99727.47;5030757;28;19917;-84
2023/07/14 05:07:43;;;;;;;;;;;;;;;24.21;100.00;99731.53;5029457;28;19917;-84
2023/07/14 05:10:09;;;;;;;;;;;;;;;24.22;100.00;99730.47;5024885;28;20306;-85
2023/07/14 05:12:34;;;;;;;;;;;;;;;24.14;100.00;99725.38;5024014;28;19991;-84
2023/07/14 05:15:10;;;;;;;;;;;;;;;24.14;100.00;99718.13;5029845;28;20098;-84
2023/07/14 05:17:39;;;;;;;;;;;;;;;24.23;100.00;99718.63;5028834;28;19923;-81
2023/07/14 05:20:10;;;;;;;;;;;;;;;24.25;100.00;99725.47;5026238;28;20048;-81
2023/07/14 05:22:36;;;;;;;;;;;;;;;24.17;100.00;99723.03;5027773;28;19963;-82
2023/07/14 05:25:02;;;;;;;;;;;;;;;24.24;100.00;99725.69;5024334;28;19928;-82
2023/07/14 05:27:27;;;;;;;;;;;;;;;24.29;100.00;99723.13;5028929;28;19921;-82
2023/07/14 05:29:53;;;;;;;;;;;;;;;24.30;100.00;99733.69;5024730;28;19917;-83
2023/07/14 05:32:19;;;;;;;;;;;;;;;24.33;100.00;99735.09;5030774;28;19952;-83
2023/07/14 05:34:45;;;;;;;;;;;;;;;24.28;100.00;99732.25;5028846;28;20007;-81
2023/07/14 05:37:11;;;;;;;;;;;;;;;24.13;100.00;99742.59;5043963;22;19921;-72
2023/07/14 05:39:36;;;;;;;;;;;;;;;24.20;100.00;99748.78;5026846;28;19921;-72
2023/07/14 05:42:03;;;;;;;;;;;;;;;24.29;100.00;99742.00;5026147;28;19944;-76
2023/07/14 05:44:29;;;;;;;;;;;;;;;24.28;100.00;99745.75;5024366;28;19925;-72
2023/07/14 05:46:55;;;;;;;;;;;;;;;24.21;100.00;99737.72;5027732;28;19917;-73
2023/07/14 05:49:20;;;;;;;;;;;;;;;24.29;100.00;99742.00;5028993;28;19917;-72
2023/07/14 05:51:46;;;;;;;;;;;;;;;24.35;100.00;99735.69;5024218;28;19991;-73
2023/07/14 05:54:12;;;;;;;;;;;;;;;24.32;100.00;99742.38;5028933;28;19939;-74
2023/07/14 05:56:37;;;;;;;;;;;;;;;24.36;100.00;99742.75;5025407;28;19924;-73
2023/07/14 05:59:03;;;;;;;;;;;;;;;24.36;100.00;99748.97;5026086;28;19913;-73
2023/07/14 06:01:28;;;;;;;;;;;;;;;24.41;100.00;99751.78;5026691;28;19936;-74
2023/07/14 06:03:53;;;;;;;;;;;;;;;24.36;100.00;99764.31;5024248;28;19917;-73
2023/07/14 06:06:19;;;;;;;;;;;;;;;24.36;100.00;99756.22;5023092;28;19924;-73
2023/07/14 06:08:45;;;;;;;;;;;;;;;24.24;100.00;99771.53;5027876;28;19956;-73
2023/07/14 06:11:10;;;;;;;;;;;;;;;24.23;100.00;99759.91;5028199;28;19917;-73
2023/07/14 06:13:37;;;;;;;;;;;;;;;24.22;100.00;99762.81;5029416;28;20011;-72
2023/07/14 06:16:03;;;;;;;;;;;;;;;24.29;100.00;99768.97;5029213;28;20008;-73
2023/07/14 06:18:28;;;;;;;;;;;;;;;24.29;100.00;99769.78;5027517;28;19921;-73
2023/07/14 06:20:56;;;;;;;;;;;;;;;24.33;100.00;99770.16;5030492;28;19923;-74
2023/07/14 06:23:24;;;;;;;;;;;;;;;24.39;100.00;99769.25;5029313;28;19963;-73
2023/07/14 06:25:50;;;;;;;;;;;;;;;24.31;100.00;99777.66;5042945;28;20435;-73
2023/07/14 06:28:17;;;;;;;;;;;;;;;24.12;100.00;99779.50;5028427;28;19924;-73
2023/07/14 06:30:42;;;;;;;;;;;;;;;24.16;100.00;99787.97;5030126;28;19912;-75
2023/07/14 06:33:09;;;;;;;;;;;;;;;24.24;100.00;99788.53;5033217;28;19963;-73
2023/07/14 06:35:34;;;;;;;;;;;;;;;24.27;100.00;99789.97;5030177;28;20219;-73
2023/07/14 06:37:59;;;;;;;;;;;;;;;24.24;100.00;99790.41;5029780;28;19944;-74
2023/07/14 06:40:25;;;;;;;;;;;;;;;24.15;100.00;99786.34;5030258;28;20437;-75
2023/07/14 06:42:52;;;;;;;;;;;;;;;24.15;100.00;99791.72;5026335;28;19917;-74
2023/07/14 06:45:19;;;;;;;;;;;;;;;24.18;100.00;99793.97;5028969;28;20319;-74
2023/07/14 06:47:45;;;;;;;;;;;;;;;24.11;100.00;99794.03;5030681;28;19988;-74
2023/07/14 06:50:10;;;;;;;;;;;;;;;23.87;100.00;99793.03;5028706;28;19917;-75
2023/07/14 06:52:37;;;;;;;;;;;;;;;23.89;100.00;99796.34;5029432;28;19966;-74
2023/07/14 06:55:02;;;;;;;;;;;;;;;24.01;100.00;99794.56;5028728;28;19920;-74
2023/07/14 06:57:28;;;;;;;;;;;;;;;24.07;100.00;99807.16;5031770;28;20472;-74
2023/07/14 06:59:53;;;;;;;;;;;;;;;24.08;100.00;99806.09;5025992;28;19924;-74
2023/07/14 07:02:18;;;;;;;;;;;;;;;23.96;100.00;99804.38;5028132;28;20428;-74
2023/07/14 07:04:44;;;;;;;;;;;;;;;24.01;100.00;99810.75;5030529;28;19940;-74
2023/07/14 07:07:09;;;;;;;;;;;;;;;24.06;100.00;99805.50;5031667;28;19917;-74
2023/07/14 07:09:35;;;;;;;;;;;;;;;24.11;100.00;99804.00;5029200;28;19913;-74
2023/07/14 07:12:00;;;;;;;;;;;;;;;24.05;100.00;99803.84;5028124;28;19924;-72
2023/07/14 07:14:25;;;;;;;;;;;;;;;24.09;100.00;99796.94;5027498;28;19979;-74
2023/07/14 07:16:51;;;;;;;;;;;;;;;23.95;100.00;99800.84;5031135;28;20326;-72
2023/07/14 07:19:16;;;;;;;;;;;;;;;24.10;100.00;99800.47;5028369;28;19921;-75
2023/07/14 07:21:42;;;;;;;;;;;;;;;24.18;100.00;99799.34;5027930;28;19921;-73
2023/07/14 07:24:09;;;;;;;;;;;;;;;24.13;100.00;99791.13;5028484;28;19917;-74
2023/07/14 07:26:34;;;;;;;;;;;;;;;24.19;100.00;99791.09;5027173;28;19924;-75
2023/07/14 07:29:00;;;;;;;;;;;;;;;24.23;100.00;99807.63;5025518;28;20302;-75
2023/07/14 07:31:25;;;;;;;;;;;;;;;24.30;100.00;99802.97;5028111;28;19917;-73
2023/07/14 07:33:51;;;;;;;;;;;;;;;24.42;100.00;99806.56;5024178;28;20039;-74
2023/07/14 07:36:16;;;;;;;;;;;;;;;24.49;100.00;99801.91;5026930;28;20015;-75
2023/07/14 07:38:43;;;;;;;;;;;;;;;24.58;100.00;99810.50;5027831;28;19917;-76
2023/07/14 07:41:08;;;;;;;;;;;;;;;24.67;100.00;99812.69;5027853;28;19913;-73
2023/07/14 07:43:33;;;;;;;;;;;;;;;24.70;100.00;99814.09;5028550;28;20000;-75
2023/07/14 07:45:59;;;;;;;;;;;;;;;24.68;100.00;99811.59;5021249;28;19925;-74
2023/07/14 07:48:24;;;;;;;;;;;;;;;24.61;100.00;99808.19;5026116;28;19913;-75
2023/07/14 07:50:50;;;;;;;;;;;;;;;24.72;100.00;99812.00;5023650;28;19917;-73
2023/07/14 07:53:15;;;;;;;;;;;;;;;24.77;100.00;99815.66;5023678;28;19917;-73
2023/07/14 07:55:41;;;;;;;;;;;;;;;24.82;100.00;99818.50;5023651;28;19921;-74
2023/07/14 07:58:06;;;;;;;;;;;;;;;24.94;100.00;99815.03;5029254;28;19920;-75
2023/07/14 08:00:31;;;;;;;;;;;;;;;24.98;100.00;99822.44;5023438;28;19956;-74
2023/07/14 08:02:57;;;;;;;;;;;;;;;25.04;100.00;99831.50;5026630;28;20003;-74
2023/07/14 08:05:24;;;;;;;;;;;;;;;24.99;100.00;99831.38;5023556;28;19917;-74
2023/07/14 08:07:49;;;;;;;;;;;;;;;24.97;100.00;99836.19;5027881;28;20288;-74
2023/07/14 08:10:15;;;;;;;;;;;;;;;24.99;100.00;99828.66;5023736;28;19917;-73
2023/07/14 08:12:40;;;;;;;;;;;;;;;24.93;100.00;99829.59;5023720;28;20012;-75
2023/07/14 08:15:07;;;;;;;;;;;;;;;24.93;100.00;99834.97;5027237;28;20351;-74
2023/07/14 08:17:32;;;;;;;;;;;;;;;25.02;100.00;99822.81;5024857;28;20385;-74
2023/07/14 08:19:58;;;;;;;;;;;;;;;25.07;100.00;99821.06;5022250;28;19948;-75
2023/07/14 08:22:25;;;;;;;;;;;;;;;25.16;100.00;99829.66;5024830;28;19924;-73
2023/07/14 08:24:51;;;;;;;;;;;;;;;25.21;100.00;99827.13;5028512;28;19917;-73
2023/07/14 08:27:17;;;;;;;;;;;;;;;25.26;100.00;99821.84;5025102;28;19927;-74
2023/07/14 08:29:42;;;;;;;;;;;;;;;25.33;100.00;99824.44;5026061;28;19917;-74
2023/07/14 08:32:08;;;;;;;;;;;;;;;25.35;100.00;99828.53;5031548;28;19955;-76
2023/07/14 08:34:34;;;;;;;;;;;;;;;25.37;100.00;99821.03;5024585;28;19963;-73
2023/07/14 08:37:00;;;;;;;;;;;;;;;25.38;100.00;99825.38;5026698;28;19917;-76
2023/07/14 08:39:26;;;;;;;;;;;;;;;25.44;100.00;99821.75;5025947;28;20056;-76
2023/07/14 08:41:59;;;;;;;;;;;;;;;25.50;100.00;99815.41;5026263;28;20290;-75
2023/07/14 08:44:46;;;;;;;;;;;;;;;25.56;100.00;99813.66;5041121;28;19924;-73
2023/07/14 08:47:12;;;;;;;;;;;;;;;25.51;100.00;99817.03;5024510;28;20326;-73
2023/07/14 08:49:49;;;;;;;;;;;;;;;25.56;100.00;99813.66;5026440;28;20459;-73
2023/07/14 08:52:27;;;;;;;;;;;;;;;25.54;100.00;99808.47;5029117;28;19917;-73
2023/07/14 08:54:59;;;;;;;;;;;;;;;25.58;100.00;99817.78;5026148;28;20277;-73
2023/07/14 08:57:26;;;;;;;;;;;;;;;25.70;100.00;99809.69;5028176;28;20239;-75
2023/07/14 08:59:54;;;;;;;;;;;;;;;25.74;100.00;99810.06;5030035;28;20286;-77
2023/07/14 09:02:22;;;;;;;;;;;;;;;25.77;100.00;99810.41;5025557;28;20304;-76
2023/07/14 09:04:55;;;;;;;;;;;;;;;25.84;100.00;99810.28;5029777;28;20296;-76
2023/07/14 09:07:21;;;;;;;;;;;;;;;25.91;100.00;99805.59;5027543;28;19917;-75
2023/07/14 09:09:47;;;;;;;;;;;;;;;25.99;100.00;99806.03;5025915;28;20328;-75
2023/07/14 09:12:34;;;;;;;;;;;;;;;26.09;100.00;99808.16;5026700;28;20035;-75
2023/07/14 09:15:01;;;;;;;;;;;;;;;26.18;100.00;99812.13;5030166;28;20347;-75
2023/07/14 09:17:36;;;;;;;;;;;;;;;26.29;100.00;99819.41;5034500;28;19920;-78
2023/07/14 09:20:20;;;;;;;;;;;;;;;26.39;100.00;99813.41;5026333;28;19917;-75
2023/07/14 09:22:49;;;;;;;;;;;;;;;26.28;100.00;99817.78;5024523;28;19967;-77
2023/07/14 09:25:18;;;;;;;;;;;;;;;26.31;100.00;99809.19;5027669;28;19924;-76
2023/07/14 09:27:46;;;;;;;;;;;;;;;26.27;100.00;99810.72;5024936;28;19918;-76
2023/07/14 09:30:19;;;;;;;;;;;;;;;26.13;100.00;99812.03;5025739;28;19929;-80
2023/07/14 09:32:49;;;;;;;;;;;;;;;26.08;100.00;99809.22;5025777;28;19962;-76
2023/07/14 09:35:19;;;;;;;;;;;;;;;26.12;100.00;99807.66;5026073;28;19924;-75
2023/07/14 09:37:51;;;;;;;;;;;;;;;26.07;100.00;99811.09;5028581;28;20586;-78
2023/07/14 09:40:25;;;;;;;;;;;;;;;26.14;100.00;99816.38;5025443;28;19921;-77
2023/07/14 09:42:52;;;;;;;;;;;;;;;26.08;100.00;99806.50;5025203;28;19917;-78
2023/07/14 09:45:20;;;;;;;;;;;;;;;25.99;100.00;99807.91;5027773;28;19917;-74
2023/07/14 09:47:47;;;;;;;;;;;;;;;26.10;100.00;99804.38;5032591;28;19917;-75
2023/07/14 09:50:21;;;;;;;;;;;;;;;26.12;100.00;99807.66;5031962;28;19947;-77
2023/07/14 09:52:55;;;;;;;;;;;;;;;26.20;100.00;99815.41;5031888;28;19928;-75
2023/07/14 09:55:20;;;;;;;;;;;;;;;26.22;100.00;99810.56;5029601;28;19917;-75
2023/07/14 09:57:46;;;;;;;;;;;;;;;26.36;100.00;99809.28;5029950;28;19921;-79
2023/07/14 10:00:28;;;;;;;;;;;;;;;26.45;100.00;99807.84;5030315;28;20397;-81
2023/07/14 10:03:11;;;;;;;;;;;;;;;26.56;100.00;99819.72;5028390;28;19968;-85
2023/07/14 10:05:46;;;;;;;;;;;;;;;26.59;100.00;99807.56;5032208;28;19921;-88
2023/07/14 10:08:30;;;;;;;;;;;;;;;26.58;100.00;99803.22;5035935;28;20008;-79
2023/07/14 10:10:57;;;;;;;;;;;;;;;26.52;100.00;99801.47;5043371;28;19917;-81
2023/07/14 10:13:27;;;;;;;;;;;;;;;26.55;100.00;99801.00;5033651;28;19917;-79
2023/07/14 10:15:55;;;;;;;;;;;;;;;26.58;100.00;99803.22;5032460;28;19924;-78
2023/07/14 10:18:20;;;;;;;;;;;;;;;26.61;100.00;99798.16;5028076;28;19928;-79
2023/07/14 10:21:06;;;;;;;;;;;;;;;26.60;100.00;99798.41;5025829;28;19921;-79
2023/07/14 10:23:32;;;;;;;;;;;;;;;26.64;100.00;99796.84;5027123;28;19947;-80
2023/07/14 10:25:57;;;;;;;;;;;;;;;26.44;100.00;99800.81;5027933;28;19925;-79
2023/07/14 10:28:31;;;;;;;;;;;;;;;26.47;100.00;99804.91;5024962;28;20090;-79
2023/07/14 10:30:59;;;;;;;;;;;;;;;26.62;100.00;99807.09;5025530;28;19974;-79
2023/07/14 10:33:28;;;;;;;;;;;;;;;26.67;100.00;99809.91;4676965;28;9999636;-79
2023/07/14 10:36:02;;;;;;;;;;;;;;;26.41;100.00;99798.56;5027722;28;19921;-84
2023/07/14 10:38:34;;;;;;;;;;;;;;;26.58;100.00;99800.50;5027459;28;19921;-82
2023/07/14 10:41:02;;;;;;;;;;;;;;;26.64;100.00;99796.84;5033258;28;19925;-86
2023/07/14 10:44:00;;;;;;;;;;;;;;;26.78;100.00;99790.91;5030451;28;19952;-82
2023/07/14 10:46:32;;;;;;;;;;;;;;;26.96;100.00;99792.63;5017302;28;20425;-81
2023/07/14 10:49:05;;;;;;;;;;;;;;;26.92;100.00;99796.88;5033429;28;19917;-79
2023/07/14 10:51:38;;;;;;;;;;;;;;;26.89;100.00;99802.78;5030695;28;19929;-80
2023/07/14 10:54:08;;;;;;;;;;;;;;;27.00;100.00;99791.06;5028517;28;20046;-82
2023/07/14 10:56:36;;;;;;;;;;;;;;;27.09;100.00;99795.03;5027165;28;19996;-80
2023/07/14 10:59:22;;;;;;;;;;;;;;;27.21;100.00;99795.78;5029567;28;19917;-85
2023/07/14 11:01:53;;;;;;;;;;;;;;;27.30;100.00;99799.72;5030355;28;20385;-78
2023/07/14 11:04:32;;;;;;;;;;;;;;;27.25;100.00;99802.34;5015549;28;19921;-74
2023/07/14 11:06:58;;;;;;;;;;;;;;;27.09;100.00;99800.44;5027369;28;19975;-74
2023/07/14 11:09:25;;;;;;;;;;;;;;;27.09;100.00;99794.19;5029027;28;19917;-77
2023/07/14 11:11:53;;;;;;;;;;;;;;;27.10;100.00;99793.94;5026966;28;19917;-77
2023/07/14 11:14:28;;;;;;;;;;;;;;;27.06;100.00;99787.38;5022977;28;20309;-75
2023/07/14 11:16:59;;;;;;;;;;;;;;;27.03;100.00;99785.16;5023754;28;19946;-77
2023/07/14 11:19:32;;;;;;;;;;;;;;;27.12;100.00;99780.16;5025924;28;20385;-76
2023/07/14 11:22:25;;;;;;;;;;;;;;;27.17;100.00;99783.78;5027826;28;20011;-73
2023/07/14 11:24:51;;;;;;;;;;;;;;;27.17;100.00;99778.34;4985935;28;20362;-73
2023/07/14 11:27:32;;;;;;;;;;;;;;;27.15;100.00;99774.25;5022883;28;19921;-74
2023/07/14 11:30:07;;;;;;;;;;;;;;;27.17;100.00;99766.69;5027086;28;19917;-73
2023/07/14 11:32:46;;;;;;;;;;;;;;;27.21;100.00;99768.69;5027298;28;19956;-73
2023/07/14 11:35:12;;;;;;;;;;;;;;;27.34;100.00;99777.53;5027850;28;19917;-73
2023/07/14 11:37:50;;;;;;;;;;;;;;;27.26;100.00;99759.81;5026611;28;19923;-74
2023/07/14 11:40:20;;;;;;;;;;;;;;;27.36;100.00;99757.25;5024786;28;20373;-76
2023/07/14 11:42:56;;;;;;;;;;;;;;;27.44;100.00;99756.03;5025071;28;20000;-73
2023/07/14 11:45:24;;;;;;;;;;;;;;;27.57;100.00;99755.69;5024155;28;19924;-75
2023/07/14 11:47:50;;;;;;;;;;;;;;;27.59;100.00;99753.56;5026985;28;20362;-75
2023/07/14 11:50:16;;;;;;;;;;;;;;;27.66;100.00;99754.22;5024217;28;20400;-74
2023/07/14 11:53:02;;;;;;;;;;;;;;;27.64;100.00;99759.88;5030968;28;20293;-72
2023/07/14 11:55:29;;;;;;;;;;;;;;;27.78;100.00;99762.25;5018391;28;20393;-73
2023/07/14 11:58:04;;;;;;;;;;;;;;;27.85;100.00;99763.72;5025867;28;19971;-73
2023/07/14 12:00:37;;;;;;;;;;;;;;;27.92;100.00;99753.50;5029609;28;19931;-72
2023/07/14 12:03:03;;;;;;;;;;;;;;;27.92;100.00;99750.00;5027911;28;19928;-74
2023/07/14 12:05:32;;;;;;;;;;;;;;;27.98;100.00;99749.78;5027288;28;19963;-73
2023/07/14 12:08:10;;;;;;;;;;;;;;;28.14;100.00;99739.16;5026853;28;19921;-73
2023/07/14 12:10:39;;;;;;;;;;;;;;;28.31;100.00;99750.75;5024338;28;19925;-74
2023/07/14 12:13:17;;;;;;;;;;;;;;;28.29;100.00;99747.47;5038900;28;20000;-73
2023/07/14 12:15:48;;;;;;;;;;;;;;;28.47;100.00;99749.84;5021573;28;19956;-74
2023/07/14 12:18:26;;;;;;;;;;;;;;;28.68;100.00;99748.19;5027784;28;20671;-74
2023/07/14 12:21:11;;;;;;;;;;;;;;;28.87;100.00;99744.88;5025297;28;20356;-74
2023/07/14 12:23:48;;;;;;;5.40;4.70;;;;;;;29.01;100.00;99733.59;5027317;28;20376;-74
2023/07/14 12:26:18;;;;;;;;;;;;;;;29.19;100.00;99742.16;5026605;28;19963;-74
2023/07/14 12:28:44;;;;;;;;;;;;;;;29.35;100.00;99734.16;5026350;28;19917;-74
2023/07/14 12:31:17;;;;;;;;;;;;;;;29.04;100.00;99742.03;5030388;28;19979;-72
2023/07/14 12:33:43;;;;;;;;;;;;;;;28.79;100.00;99742.63;5024658;28;19925;-73
2023/07/14 12:36:19;;;;;;;;;;;;;;;28.85;100.00;99727.22;5027543;28;19923;-74
2023/07/14 12:38:48;;;;;;;;;;;;;;;28.98;100.00;99734.94;5025197;28;20011;-74